createdAt,value
2018-10-03T00:00:46.036Z,14.10
2018-10-03T00:01:49.415Z,14.10
2018-10-03T00:02:52.925Z,14.10
2018-10-03T00:03:56.308Z,14.10
2018-10-03T00:04:59.695Z,14.10
2018-10-03T00:06:03.133Z,14.10
2018-10-03T00:07:06.519Z,14.10
2018-10-03T00:08:09.930Z,14.10
2018-10-03T00:09:13.308Z,14.10
2018-10-03T00:10:16.691Z,14.10
2018-10-03T00:11:20.128Z,14.10
2018-10-03T00:12:23.534Z,14.10
2018-10-03T00:13:26.946Z,14.10
2018-10-03T00:14:30.320Z,14.20
2018-10-03T00:15:33.704Z,14.10
2018-10-03T00:16:37.092Z,14.10
2018-10-03T00:17:40.483Z,14.10
2018-10-03T00:18:43.888Z,14.20
2018-10-03T00:19:47.268Z,14.10
2018-10-03T00:20:50.651Z,14.10
2018-10-03T00:21:54.081Z,14.10
2018-10-03T00:22:57.459Z,14.10
2018-10-03T00:24:00.874Z,14.20
2018-10-03T00:25:04.261Z,14.20
2018-10-03T00:26:07.640Z,14.20
2018-10-03T00:27:11.043Z,14.20
2018-10-03T00:28:14.432Z,14.20
2018-10-03T00:29:17.840Z,14.20
2018-10-03T00:30:21.211Z,14.20
2018-10-03T00:31:24.601Z,14.20
2018-10-03T00:32:27.984Z,14.20
2018-10-03T00:33:31.368Z,14.20
2018-10-03T00:34:34.777Z,14.10
2018-10-03T00:35:38.139Z,14.10
2018-10-03T00:36:41.565Z,14.20
2018-10-03T00:37:45.341Z,14.20
2018-10-03T00:38:48.711Z,14.10
2018-10-03T00:39:52.140Z,14.10
2018-10-03T00:40:55.543Z,14.10
2018-10-03T00:41:58.939Z,14.10
2018-10-03T00:43:02.346Z,14.10
2018-10-03T00:44:05.735Z,14.10
2018-10-03T00:45:09.220Z,14.10
2018-10-03T00:46:12.612Z,14.10
2018-10-03T00:47:16.008Z,14.10
2018-10-03T00:48:19.392Z,14.10
2018-10-03T00:49:22.767Z,14.10
2018-10-03T00:50:26.191Z,14.10
2018-10-03T00:51:29.661Z,14.10
2018-10-03T00:52:33.044Z,14.20
2018-10-03T00:53:36.424Z,14.10
2018-10-03T00:54:39.834Z,14.10
2018-10-03T00:55:43.257Z,14.10
2018-10-03T00:56:46.654Z,14.10
2018-10-03T00:57:50.049Z,14.10
2018-10-03T00:58:53.445Z,14.10
2018-10-03T00:59:56.836Z,14.10
2018-10-03T01:01:00.278Z,14.10
2018-10-03T01:02:03.655Z,14.10
2018-10-03T01:03:07.413Z,14.10
2018-10-03T01:04:10.788Z,14.20
2018-10-03T01:05:14.359Z,14.10
2018-10-03T01:06:17.776Z,14.10
2018-10-03T01:07:21.205Z,14.10
2018-10-03T01:08:24.588Z,14.10
2018-10-03T01:09:28.007Z,14.10
2018-10-03T01:10:31.415Z,14.10
2018-10-03T01:11:34.841Z,14.10
2018-10-03T01:12:38.225Z,14.20
2018-10-03T01:13:41.647Z,14.10
2018-10-03T01:14:45.109Z,14.10
2018-10-03T01:15:48.493Z,14.10
2018-10-03T01:16:51.901Z,14.20
2018-10-03T01:17:55.281Z,14.20
2018-10-03T01:18:58.668Z,14.20
2018-10-03T01:20:02.053Z,14.10
2018-10-03T01:21:05.696Z,14.10
2018-10-03T01:22:09.156Z,14.20
2018-10-03T01:23:12.555Z,14.20
2018-10-03T01:24:15.943Z,14.20
2018-10-03T01:25:19.337Z,14.20
2018-10-03T01:26:22.732Z,14.20
2018-10-03T01:27:28.963Z,14.20
2018-10-03T01:28:32.352Z,14.20
2018-10-03T01:29:35.736Z,14.20
2018-10-03T01:30:39.126Z,14.20
2018-10-03T01:31:42.524Z,14.20
2018-10-03T01:32:45.979Z,14.20
2018-10-03T01:33:49.352Z,14.10
2018-10-03T01:34:52.742Z,14.10
2018-10-03T01:35:56.148Z,14.10
2018-10-03T01:36:59.541Z,14.10
2018-10-03T01:38:02.974Z,14.20
2018-10-03T01:39:08.377Z,14.20
2018-10-03T01:40:11.991Z,14.10
2018-10-03T01:41:15.360Z,14.10
2018-10-03T01:42:18.741Z,14.10
2018-10-03T01:43:22.133Z,14.10
2018-10-03T01:44:25.571Z,14.10
2018-10-03T01:45:28.922Z,14.10
2018-10-03T01:46:32.321Z,14.10
2018-10-03T01:47:35.739Z,14.10
2018-10-03T01:48:39.133Z,14.10
2018-10-03T01:49:42.515Z,14.10
2018-10-03T01:50:45.896Z,14.10
2018-10-03T01:51:49.265Z,14.10
2018-10-03T01:52:52.645Z,14.10
2018-10-03T01:53:56.049Z,14.10
2018-10-03T01:54:59.428Z,14.10
2018-10-03T01:56:02.875Z,14.10
2018-10-03T01:57:06.264Z,14.10
2018-10-03T01:58:09.687Z,14.10
2018-10-03T01:59:13.097Z,14.10
2018-10-03T02:00:16.479Z,14.10
2018-10-03T02:01:19.868Z,14.00
2018-10-03T02:02:23.264Z,14.00
2018-10-03T02:03:26.649Z,14.00
2018-10-03T02:04:30.047Z,14.00
2018-10-03T02:05:33.428Z,14.00
2018-10-03T02:06:36.797Z,14.00
2018-10-03T02:07:40.168Z,14.00
2018-10-03T02:08:43.545Z,13.90
2018-10-03T02:10:54.629Z,13.90
2018-10-03T02:11:58.012Z,14.00
2018-10-03T02:13:01.417Z,13.90
2018-10-03T02:14:04.796Z,13.90
2018-10-03T02:15:08.201Z,13.90
2018-10-03T02:16:11.626Z,13.90
2018-10-03T02:17:15.031Z,13.90
2018-10-03T02:18:18.412Z,14.00
2018-10-03T02:19:21.789Z,14.00
2018-10-03T02:20:25.201Z,13.90
2018-10-03T02:21:28.617Z,14.00
2018-10-03T02:22:32.020Z,14.00
2018-10-03T02:23:35.413Z,14.00
2018-10-03T02:24:38.788Z,14.00
2018-10-03T02:25:42.224Z,14.00
2018-10-03T02:26:45.720Z,14.00
2018-10-03T02:27:49.136Z,14.00
2018-10-03T02:28:52.512Z,14.00
2018-10-03T02:29:55.908Z,14.00
2018-10-03T02:30:59.309Z,14.00
2018-10-03T02:32:02.697Z,14.00
2018-10-03T02:33:06.077Z,14.00
2018-10-03T02:34:09.472Z,14.00
2018-10-03T02:35:12.849Z,14.00
2018-10-03T02:36:16.251Z,14.00
2018-10-03T02:37:19.628Z,14.00
2018-10-03T02:38:23.017Z,14.00
2018-10-03T02:39:26.400Z,14.00
2018-10-03T02:40:29.867Z,14.00
2018-10-03T02:41:33.263Z,14.00
2018-10-03T02:42:36.644Z,14.00
2018-10-03T02:43:40.024Z,14.00
2018-10-03T02:44:43.396Z,14.00
2018-10-03T02:45:46.821Z,14.00
2018-10-03T02:46:50.218Z,14.00
2018-10-03T02:47:53.604Z,14.00
2018-10-03T02:48:56.984Z,14.10
2018-10-03T02:50:00.383Z,14.00
2018-10-03T02:51:03.956Z,14.00
2018-10-03T02:52:07.340Z,14.00
2018-10-03T02:53:10.725Z,14.00
2018-10-03T02:54:14.168Z,14.00
2018-10-03T02:55:17.553Z,14.00
2018-10-03T02:56:20.948Z,14.00
2018-10-03T02:57:24.341Z,14.00
2018-10-03T02:58:27.725Z,14.00
2018-10-03T02:59:31.105Z,14.00
2018-10-03T03:00:34.492Z,14.00
2018-10-03T03:01:37.910Z,14.00
2018-10-03T03:02:41.333Z,14.00
2018-10-03T03:03:44.733Z,14.00
2018-10-03T03:04:48.171Z,14.00
2018-10-03T03:05:51.555Z,14.00
2018-10-03T03:06:54.953Z,14.00
2018-10-03T03:07:58.337Z,14.00
2018-10-03T03:09:01.745Z,14.00
2018-10-03T03:10:05.179Z,14.00
2018-10-03T03:11:08.615Z,14.00
2018-10-03T03:12:12.015Z,14.00
2018-10-03T03:13:15.642Z,14.00
2018-10-03T03:14:19.039Z,14.00
2018-10-03T03:15:22.422Z,14.10
2018-10-03T03:16:25.815Z,14.00
2018-10-03T03:17:29.284Z,14.00
2018-10-03T03:18:32.694Z,14.00
2018-10-03T03:19:36.107Z,14.00
2018-10-03T03:20:39.493Z,14.00
2018-10-03T03:21:42.868Z,14.00
2018-10-03T03:22:46.313Z,14.00
2018-10-03T03:23:49.721Z,14.00
2018-10-03T03:24:53.126Z,14.00
2018-10-03T03:25:56.541Z,13.90
2018-10-03T03:26:59.903Z,14.00
2018-10-03T03:28:03.486Z,14.00
2018-10-03T03:29:06.880Z,13.90
2018-10-03T03:30:10.264Z,13.90
2018-10-03T03:31:13.657Z,14.00
2018-10-03T03:32:17.049Z,13.90
2018-10-03T03:33:20.454Z,13.90
2018-10-03T03:34:23.853Z,13.90
2018-10-03T03:35:27.234Z,13.90
2018-10-03T03:36:30.806Z,13.90
2018-10-03T03:37:34.184Z,13.90
2018-10-03T03:38:37.582Z,13.90
2018-10-03T03:39:40.957Z,13.90
2018-10-03T03:40:44.364Z,13.80
2018-10-03T03:41:47.773Z,13.90
2018-10-03T03:42:51.191Z,13.80
2018-10-03T03:43:54.644Z,13.80
2018-10-03T03:44:58.043Z,13.80
2018-10-03T03:46:01.434Z,13.80
2018-10-03T03:47:04.824Z,13.80
2018-10-03T03:48:08.212Z,13.80
2018-10-03T03:49:11.616Z,13.80
2018-10-03T03:50:14.995Z,13.80
2018-10-03T03:51:18.367Z,13.80
2018-10-03T03:52:21.744Z,13.80
2018-10-03T03:53:25.116Z,13.80
2018-10-03T03:54:28.513Z,13.80
2018-10-03T03:55:31.897Z,13.80
2018-10-03T03:56:35.281Z,13.80
2018-10-03T03:57:38.695Z,13.80
2018-10-03T03:58:42.072Z,13.80
2018-10-03T03:59:45.497Z,13.80
2018-10-03T04:00:48.998Z,13.80
2018-10-03T04:01:52.400Z,13.70
2018-10-03T04:02:55.792Z,13.70
2018-10-03T04:03:59.184Z,13.70
2018-10-03T04:05:02.582Z,13.70
2018-10-03T04:06:05.957Z,13.70
2018-10-03T04:07:09.393Z,13.70
2018-10-03T04:08:12.760Z,13.70
2018-10-03T04:09:16.126Z,13.70
2018-10-03T04:10:19.507Z,13.70
2018-10-03T04:11:22.881Z,13.70
2018-10-03T04:12:26.250Z,13.70
2018-10-03T04:13:29.625Z,13.70
2018-10-03T04:14:32.988Z,13.70
2018-10-03T04:15:36.456Z,13.70
2018-10-03T04:16:39.823Z,13.70
2018-10-03T04:17:43.196Z,13.70
2018-10-03T04:18:46.568Z,13.60
2018-10-03T04:19:49.943Z,13.70
2018-10-03T04:20:53.341Z,13.70
2018-10-03T04:21:56.710Z,13.60
2018-10-03T04:23:00.089Z,13.60
2018-10-03T04:24:03.823Z,13.60
2018-10-03T04:25:07.216Z,13.60
2018-10-03T04:26:10.599Z,13.60
2018-10-03T04:27:14.056Z,13.60
2018-10-03T04:28:17.424Z,13.60
2018-10-03T04:29:20.867Z,13.50
2018-10-03T04:30:24.237Z,13.50
2018-10-03T04:31:27.651Z,13.50
2018-10-03T04:32:31.020Z,13.60
2018-10-03T04:33:34.392Z,13.50
2018-10-03T04:34:37.761Z,13.50
2018-10-03T04:35:41.189Z,13.50
2018-10-03T04:36:44.564Z,13.50
2018-10-03T04:37:47.937Z,13.50
2018-10-03T04:38:51.301Z,13.50
2018-10-03T04:39:54.692Z,13.40
2018-10-03T04:40:58.070Z,13.40
2018-10-03T04:42:01.530Z,13.50
2018-10-03T04:43:04.848Z,13.40
2018-10-03T04:44:08.256Z,13.40
2018-10-03T04:45:11.666Z,13.40
2018-10-03T04:46:15.036Z,13.40
2018-10-03T04:47:18.440Z,13.40
2018-10-03T04:48:21.796Z,13.40
2018-10-03T04:49:25.209Z,13.30
2018-10-03T04:50:28.627Z,13.40
2018-10-03T04:51:31.996Z,13.30
2018-10-03T04:52:35.388Z,13.30
2018-10-03T04:53:38.751Z,13.30
2018-10-03T04:54:42.118Z,13.30
2018-10-03T04:55:45.483Z,13.30
2018-10-03T04:56:48.861Z,13.30
2018-10-03T04:57:52.248Z,13.30
2018-10-03T04:58:55.615Z,13.30
2018-10-03T04:59:58.980Z,13.30
2018-10-03T05:01:02.411Z,13.30
2018-10-03T05:02:05.818Z,13.30
2018-10-03T05:03:09.289Z,13.30
2018-10-03T05:04:12.654Z,13.30
2018-10-03T05:05:16.025Z,13.30
2018-10-03T05:06:19.396Z,13.20
2018-10-03T05:07:22.769Z,13.20
2018-10-03T05:08:26.152Z,13.20
2018-10-03T05:09:29.536Z,13.20
2018-10-03T05:10:32.913Z,13.20
2018-10-03T05:11:36.292Z,13.20
2018-10-03T05:12:39.675Z,13.20
2018-10-03T05:13:43.089Z,13.30
2018-10-03T05:14:46.452Z,13.20
2018-10-03T05:15:49.849Z,13.20
2018-10-03T05:16:53.216Z,13.30
2018-10-03T05:17:56.571Z,13.30
2018-10-03T05:18:59.988Z,13.20
2018-10-03T05:20:03.352Z,13.30
2018-10-03T05:21:07.107Z,13.20
2018-10-03T05:22:10.479Z,13.20
2018-10-03T05:23:13.920Z,13.20
2018-10-03T05:24:17.316Z,13.20
2018-10-03T05:25:20.688Z,13.20
2018-10-03T05:26:24.059Z,13.20
2018-10-03T05:27:27.428Z,13.20
2018-10-03T05:28:30.800Z,13.20
2018-10-03T05:29:34.188Z,13.20
2018-10-03T05:30:37.581Z,13.20
2018-10-03T05:31:40.953Z,13.20
2018-10-03T05:32:44.385Z,13.20
2018-10-03T05:33:47.799Z,13.20
2018-10-03T05:34:51.211Z,13.20
2018-10-03T05:35:54.576Z,13.20
2018-10-03T05:36:57.939Z,13.20
2018-10-03T05:38:01.328Z,13.20
2018-10-03T05:39:07.720Z,13.20
2018-10-03T05:40:11.209Z,13.20
2018-10-03T05:41:14.584Z,13.30
2018-10-03T05:42:17.954Z,13.30
2018-10-03T05:43:21.320Z,13.30
2018-10-03T05:44:24.695Z,13.20
2018-10-03T05:45:28.075Z,13.30
2018-10-03T05:46:31.489Z,13.20
2018-10-03T05:47:34.865Z,13.30
2018-10-03T05:48:38.294Z,13.30
2018-10-03T05:49:41.619Z,13.30
2018-10-03T05:50:45.009Z,13.30
2018-10-03T05:51:48.380Z,13.30
2018-10-03T05:52:51.744Z,13.30
2018-10-03T05:53:55.100Z,13.20
2018-10-03T05:54:58.468Z,13.20
2018-10-03T05:56:01.865Z,13.30
2018-10-03T05:57:05.232Z,13.30
2018-10-03T05:58:08.616Z,13.30
2018-10-03T05:59:11.989Z,13.20
2018-10-03T06:00:15.405Z,13.20
2018-10-03T06:01:18.792Z,13.30
2018-10-03T06:02:22.158Z,13.30
2018-10-03T06:03:25.534Z,13.30
2018-10-03T06:04:28.904Z,13.30
2018-10-03T06:05:32.294Z,13.30
2018-10-03T06:06:35.689Z,13.30
2018-10-03T06:07:39.064Z,13.30
2018-10-03T06:08:42.432Z,13.30
2018-10-03T06:09:45.801Z,13.30
2018-10-03T06:10:49.160Z,13.30
2018-10-03T06:11:52.556Z,13.30
2018-10-03T06:12:55.981Z,13.30
2018-10-03T06:13:59.321Z,13.30
2018-10-03T06:15:02.688Z,13.30
2018-10-03T06:16:06.105Z,13.30
2018-10-03T06:17:09.492Z,13.30
2018-10-03T06:18:12.907Z,13.30
2018-10-03T06:19:16.276Z,13.30
2018-10-03T06:20:19.840Z,13.30
2018-10-03T06:21:23.214Z,13.40
2018-10-03T06:22:26.597Z,13.40
2018-10-03T06:23:30.020Z,13.40
2018-10-03T06:24:33.420Z,13.40
2018-10-03T06:25:36.792Z,13.40
2018-10-03T06:26:40.164Z,13.50
2018-10-03T06:27:43.633Z,13.40
2018-10-03T06:28:47.134Z,13.40
2018-10-03T06:29:50.528Z,13.50
2018-10-03T06:30:53.900Z,13.50
2018-10-03T06:31:57.281Z,13.50
2018-10-03T06:33:00.677Z,13.50
2018-10-03T06:34:04.048Z,13.50
2018-10-03T06:35:07.436Z,13.50
2018-10-03T06:36:10.805Z,13.50
2018-10-03T06:37:14.173Z,13.50
2018-10-03T06:38:17.563Z,13.50
2018-10-03T06:39:20.976Z,13.60
2018-10-03T06:40:24.367Z,13.60
2018-10-03T06:41:27.845Z,13.60
2018-10-03T06:42:31.228Z,13.60
2018-10-03T06:43:34.625Z,13.60
2018-10-03T06:44:38.012Z,13.60
2018-10-03T06:45:41.435Z,13.60
2018-10-03T06:46:44.790Z,13.60
2018-10-03T06:47:48.196Z,13.60
2018-10-03T06:48:51.605Z,13.60
2018-10-03T06:49:54.963Z,13.60
2018-10-03T06:50:58.368Z,13.60
2018-10-03T06:52:01.785Z,13.60
2018-10-03T06:53:05.161Z,13.50
2018-10-03T06:54:08.552Z,13.50
2018-10-03T06:55:11.921Z,13.50
2018-10-03T06:56:15.287Z,13.50
2018-10-03T06:57:18.651Z,13.50
2018-10-03T06:58:22.059Z,13.50
2018-10-03T06:59:25.488Z,13.60
2018-10-03T07:00:28.848Z,13.60
2018-10-03T07:01:32.241Z,13.60
2018-10-03T07:02:35.645Z,13.60
2018-10-03T07:03:39.012Z,13.60
2018-10-03T07:04:42.400Z,13.60
2018-10-03T07:05:45.864Z,13.60
2018-10-03T07:06:49.136Z,13.60
2018-10-03T07:07:52.728Z,13.60
2018-10-03T07:08:56.149Z,13.70
2018-10-03T07:09:59.557Z,13.70
2018-10-03T07:11:02.912Z,13.70
2018-10-03T07:12:06.362Z,13.70
2018-10-03T07:13:09.764Z,13.70
2018-10-03T07:14:13.119Z,13.70
2018-10-03T07:15:16.516Z,13.80
2018-10-03T07:16:20.104Z,13.80
2018-10-03T07:17:23.493Z,13.80
2018-10-03T07:18:26.865Z,13.80
2018-10-03T07:19:30.232Z,13.80
2018-10-03T07:20:33.627Z,13.80
2018-10-03T07:21:36.995Z,13.80
2018-10-03T07:22:40.372Z,13.80
2018-10-03T07:23:43.769Z,13.70
2018-10-03T07:24:47.129Z,13.70
2018-10-03T07:25:50.516Z,13.70
2018-10-03T07:26:53.880Z,13.70
2018-10-03T07:27:57.240Z,13.60
2018-10-03T07:29:00.608Z,13.60
2018-10-03T07:30:04.224Z,13.60
2018-10-03T07:31:08.049Z,13.60
2018-10-03T07:32:11.425Z,13.60
2018-10-03T07:33:14.796Z,13.60
2018-10-03T07:34:18.177Z,13.60
2018-10-03T07:35:21.551Z,13.60
2018-10-03T07:36:24.936Z,13.60
2018-10-03T07:37:28.343Z,13.60
2018-10-03T07:38:31.711Z,13.60
2018-10-03T07:39:35.084Z,13.70
2018-10-03T07:40:38.493Z,13.70
2018-10-03T07:41:41.892Z,13.80
2018-10-03T07:42:45.265Z,13.80
2018-10-03T07:43:48.700Z,13.80
2018-10-03T07:44:52.080Z,13.80
2018-10-03T07:45:55.728Z,13.80
2018-10-03T07:46:59.112Z,13.90
2018-10-03T07:48:02.563Z,13.90
2018-10-03T07:49:06.265Z,13.90
2018-10-03T07:50:09.892Z,13.90
2018-10-03T07:51:13.273Z,14.00
2018-10-03T07:52:16.778Z,14.00
2018-10-03T07:53:20.156Z,14.00
2018-10-03T07:54:23.518Z,14.10
2018-10-03T07:55:26.897Z,14.10
2018-10-03T07:56:30.284Z,14.10
2018-10-03T07:57:33.689Z,14.10
2018-10-03T07:58:37.064Z,14.20
2018-10-03T07:59:40.441Z,14.20
2018-10-03T08:00:43.808Z,14.20
2018-10-03T08:01:47.181Z,14.30
2018-10-03T08:02:50.575Z,14.30
2018-10-03T08:03:53.946Z,14.30
2018-10-03T08:04:57.601Z,14.30
2018-10-03T08:06:01.036Z,14.40
2018-10-03T08:07:04.408Z,14.40
2018-10-03T08:08:08.082Z,14.40
2018-10-03T08:09:11.554Z,14.40
2018-10-03T08:10:15.106Z,14.40
2018-10-03T08:11:18.503Z,14.40
2018-10-03T08:12:21.976Z,14.40
2018-10-03T08:13:25.407Z,14.40
2018-10-03T08:14:28.781Z,14.40
2018-10-03T08:15:32.172Z,14.40
2018-10-03T08:16:35.565Z,14.40
2018-10-03T08:17:39.165Z,14.40
2018-10-03T08:18:42.549Z,14.50
2018-10-03T08:19:45.984Z,14.50
2018-10-03T08:20:49.360Z,14.50
2018-10-03T08:21:52.723Z,14.50
2018-10-03T08:22:56.092Z,14.50
2018-10-03T08:23:59.488Z,14.50
2018-10-03T08:25:03.079Z,14.50
2018-10-03T08:26:06.516Z,14.50
2018-10-03T08:27:09.884Z,14.60
2018-10-03T08:28:13.285Z,14.50
2018-10-03T08:29:16.739Z,14.60
2018-10-03T08:30:20.120Z,14.60
2018-10-03T08:31:23.500Z,14.60
2018-10-03T08:32:26.889Z,14.60
2018-10-03T08:33:30.289Z,14.70
2018-10-03T08:34:33.735Z,14.70
2018-10-03T08:35:37.116Z,14.70
2018-10-03T08:36:40.501Z,14.70
2018-10-03T08:37:43.882Z,14.80
2018-10-03T08:38:47.305Z,14.80
2018-10-03T08:39:50.693Z,14.80
2018-10-03T08:40:54.066Z,14.80
2018-10-03T08:41:57.462Z,14.80
2018-10-03T08:43:00.838Z,14.80
2018-10-03T08:44:04.230Z,14.90
2018-10-03T08:45:07.915Z,14.90
2018-10-03T08:46:11.301Z,14.90
2018-10-03T08:47:14.666Z,14.90
2018-10-03T08:48:18.082Z,14.90
2018-10-03T08:49:21.453Z,14.90
2018-10-03T08:50:24.885Z,14.90
2018-10-03T08:51:28.272Z,14.90
2018-10-03T08:52:31.636Z,14.90
2018-10-03T08:53:35.013Z,14.90
2018-10-03T08:54:38.398Z,14.90
2018-10-03T08:55:41.784Z,14.90
2018-10-03T08:56:45.156Z,15.00
2018-10-03T08:57:48.531Z,15.00
2018-10-03T08:58:51.970Z,15.00
2018-10-03T08:59:55.397Z,14.90
2018-10-03T09:00:58.819Z,14.90
2018-10-03T09:02:02.196Z,14.90
2018-10-03T09:03:05.612Z,15.00
2018-10-03T09:04:08.987Z,15.00
2018-10-03T09:05:13.044Z,15.00
2018-10-03T09:06:16.415Z,15.00
2018-10-03T09:07:19.800Z,15.00
2018-10-03T09:08:23.188Z,15.00
2018-10-03T09:09:26.694Z,15.00
2018-10-03T09:10:30.065Z,15.00
2018-10-03T09:11:33.481Z,15.00
2018-10-03T09:12:36.857Z,14.90
2018-10-03T09:13:40.241Z,14.90
2018-10-03T09:14:43.603Z,14.90
2018-10-03T09:15:46.976Z,14.80
2018-10-03T09:16:50.389Z,14.80
2018-10-03T09:17:53.769Z,14.80
2018-10-03T09:18:57.156Z,14.80
2018-10-03T09:20:00.556Z,14.80
2018-10-03T09:21:03.956Z,14.80
2018-10-03T09:22:07.600Z,14.80
2018-10-03T09:23:10.974Z,14.80
2018-10-03T09:24:14.373Z,14.80
2018-10-03T09:25:17.743Z,14.80
2018-10-03T09:26:21.187Z,14.80
2018-10-03T09:27:24.563Z,14.80
2018-10-03T09:28:28.013Z,14.80
2018-10-03T09:29:31.378Z,14.80
2018-10-03T09:30:34.748Z,14.90
2018-10-03T09:31:38.300Z,14.80
2018-10-03T09:32:41.681Z,14.80
2018-10-03T09:33:45.092Z,14.90
2018-10-03T09:34:48.475Z,14.90
2018-10-03T09:35:51.861Z,15.00
2018-10-03T09:36:55.264Z,15.00
2018-10-03T09:37:58.643Z,15.00
2018-10-03T09:39:02.076Z,15.10
2018-10-03T09:40:05.504Z,15.10
2018-10-03T09:41:08.871Z,15.10
2018-10-03T09:42:12.268Z,15.20
2018-10-03T09:43:15.640Z,15.20
2018-10-03T09:44:19.036Z,15.20
2018-10-03T09:45:22.399Z,15.20
2018-10-03T09:46:25.796Z,15.20
2018-10-03T09:47:29.201Z,15.20
2018-10-03T09:48:32.573Z,15.20
2018-10-03T09:49:35.944Z,15.20
2018-10-03T09:50:39.316Z,15.20
2018-10-03T09:51:42.693Z,15.20
2018-10-03T09:52:46.090Z,15.20
2018-10-03T09:53:49.464Z,15.30
2018-10-03T09:54:52.836Z,15.30
2018-10-03T09:55:56.217Z,15.40
2018-10-03T09:56:59.595Z,15.40
2018-10-03T09:58:03.024Z,15.40
2018-10-03T09:59:06.417Z,15.50
2018-10-03T10:00:09.799Z,15.50
2018-10-03T10:01:14.186Z,15.50
2018-10-03T10:02:17.559Z,15.50
2018-10-03T10:03:20.944Z,15.50
2018-10-03T10:04:24.384Z,15.60
2018-10-03T10:05:27.764Z,15.50
2018-10-03T10:06:32.296Z,15.40
2018-10-03T10:07:35.664Z,15.40
2018-10-03T10:08:39.060Z,15.40
2018-10-03T10:09:42.437Z,15.40
2018-10-03T10:10:45.823Z,15.40
2018-10-03T10:11:49.189Z,15.40
2018-10-03T10:12:52.813Z,15.40
2018-10-03T10:13:56.228Z,15.40
2018-10-03T10:14:59.597Z,15.40
2018-10-03T10:16:03.017Z,15.50
2018-10-03T10:17:06.416Z,15.50
2018-10-03T10:18:09.825Z,15.50
2018-10-03T10:19:13.470Z,15.50
2018-10-03T10:20:16.871Z,15.50
2018-10-03T10:21:20.248Z,15.50
2018-10-03T10:22:23.640Z,15.50
2018-10-03T10:23:27.009Z,15.50
2018-10-03T10:24:30.444Z,15.50
2018-10-03T10:25:33.831Z,15.50
2018-10-03T10:26:37.212Z,15.50
2018-10-03T10:27:40.643Z,15.60
2018-10-03T10:28:44.053Z,15.60
2018-10-03T10:29:47.444Z,15.70
2018-10-03T10:30:50.827Z,15.70
2018-10-03T10:31:54.300Z,15.70
2018-10-03T10:32:57.649Z,15.70
2018-10-03T10:34:01.025Z,15.70
2018-10-03T10:35:04.493Z,15.70
2018-10-03T10:36:08.122Z,15.70
2018-10-03T10:37:11.492Z,15.70
2018-10-03T10:38:14.861Z,15.70
2018-10-03T10:39:18.238Z,15.60
2018-10-03T10:40:21.732Z,15.60
2018-10-03T10:41:25.250Z,15.60
2018-10-03T10:42:28.445Z,15.60
2018-10-03T10:43:31.921Z,15.50
2018-10-03T10:44:35.217Z,15.50
2018-10-03T10:45:38.676Z,15.50
2018-10-03T10:46:42.109Z,15.50
2018-10-03T10:47:45.444Z,15.50
2018-10-03T10:48:48.817Z,15.50
2018-10-03T10:49:52.202Z,15.50
2018-10-03T10:50:55.744Z,15.50
2018-10-03T10:51:59.137Z,15.50
2018-10-03T10:53:02.592Z,15.50
2018-10-03T10:54:05.990Z,15.50
2018-10-03T10:55:09.364Z,15.50
2018-10-03T10:56:12.763Z,15.60
2018-10-03T10:57:16.136Z,15.60
2018-10-03T10:58:19.521Z,15.50
2018-10-03T10:59:22.909Z,15.60
2018-10-03T11:00:26.376Z,15.50
2018-10-03T11:01:29.780Z,15.50
2018-10-03T11:02:33.212Z,15.60
2018-10-03T11:03:36.584Z,15.60
2018-10-03T11:04:40.005Z,15.60
2018-10-03T11:05:43.381Z,15.60
2018-10-03T11:06:46.815Z,15.70
2018-10-03T11:07:50.166Z,15.60
2018-10-03T11:08:53.535Z,15.70
2018-10-03T11:09:56.930Z,15.70
2018-10-03T11:11:00.304Z,15.70
2018-10-03T11:12:03.725Z,15.70
2018-10-03T11:13:07.515Z,15.70
2018-10-03T11:14:11.049Z,15.60
2018-10-03T11:15:14.420Z,15.70
2018-10-03T11:16:17.799Z,15.60
2018-10-03T11:17:21.192Z,15.70
2018-10-03T11:18:24.568Z,15.60
2018-10-03T11:19:27.953Z,15.70
2018-10-03T11:20:31.322Z,15.60
2018-10-03T11:21:34.698Z,15.60
2018-10-03T11:22:38.238Z,15.60
2018-10-03T11:23:41.828Z,15.60
2018-10-03T11:24:45.105Z,15.50
2018-10-03T11:25:48.396Z,15.50
2018-10-03T11:26:51.776Z,15.50
2018-10-03T11:27:55.168Z,15.50
2018-10-03T11:28:58.552Z,15.50
2018-10-03T11:30:02.255Z,15.50
2018-10-03T11:31:05.792Z,15.50
2018-10-03T11:32:09.197Z,15.50
2018-10-03T11:33:12.597Z,15.60
2018-10-03T11:34:15.981Z,15.60
2018-10-03T11:35:19.431Z,15.60
2018-10-03T11:36:22.811Z,15.70
2018-10-03T11:37:26.244Z,15.70
2018-10-03T11:38:29.643Z,15.80
2018-10-03T11:39:33.032Z,15.80
2018-10-03T11:40:36.438Z,15.90
2018-10-03T11:41:39.804Z,15.90
2018-10-03T11:42:43.213Z,15.90
2018-10-03T11:43:46.677Z,15.90
2018-10-03T11:44:50.005Z,15.90
2018-10-03T11:45:53.391Z,16.00
2018-10-03T11:46:56.764Z,16.00
2018-10-03T11:48:00.132Z,16.00
2018-10-03T11:49:03.542Z,16.00
2018-10-03T11:50:06.940Z,16.00
2018-10-03T11:51:10.313Z,16.10
2018-10-03T11:52:13.701Z,16.10
2018-10-03T11:53:17.068Z,16.00
2018-10-03T11:54:20.485Z,16.00
2018-10-03T11:55:23.859Z,16.00
2018-10-03T11:56:27.256Z,16.00
2018-10-03T11:57:30.640Z,16.00
2018-10-03T11:58:34.260Z,16.00
2018-10-03T11:59:37.741Z,16.00
2018-10-03T12:00:41.156Z,16.00
2018-10-03T12:01:44.528Z,16.00
2018-10-03T12:02:47.958Z,16.00
2018-10-03T12:03:51.280Z,16.00
2018-10-03T12:04:54.664Z,16.00
2018-10-03T12:05:58.041Z,16.00
2018-10-03T12:07:01.449Z,16.00
2018-10-03T12:08:04.819Z,16.00
2018-10-03T12:09:10.285Z,16.00
2018-10-03T12:10:13.984Z,15.90
2018-10-03T12:11:17.373Z,16.00
2018-10-03T12:12:20.737Z,16.00
2018-10-03T12:13:24.104Z,16.00
2018-10-03T12:14:27.480Z,15.90
2018-10-03T12:15:30.868Z,15.90
2018-10-03T12:16:34.249Z,15.90
2018-10-03T12:17:37.654Z,15.90
2018-10-03T12:18:41.063Z,15.90
2018-10-03T12:19:44.654Z,15.80
2018-10-03T12:20:48.051Z,15.80
2018-10-03T12:21:51.429Z,15.80
2018-10-03T12:22:54.819Z,15.80
2018-10-03T12:23:58.194Z,15.80
2018-10-03T12:25:01.646Z,15.80
2018-10-03T12:26:05.048Z,15.80
2018-10-03T12:27:08.420Z,15.80
2018-10-03T12:28:11.812Z,15.80
2018-10-03T12:29:15.217Z,15.90
2018-10-03T12:30:18.591Z,15.90
2018-10-03T12:31:22.001Z,15.90
2018-10-03T12:32:25.368Z,16.00
2018-10-03T12:33:28.886Z,16.00
2018-10-03T12:34:32.182Z,16.10
2018-10-03T12:35:36.048Z,16.10
2018-10-03T12:36:39.489Z,16.10
2018-10-03T12:37:42.853Z,16.10
2018-10-03T12:38:46.240Z,16.10
2018-10-03T12:39:49.661Z,16.20
2018-10-03T12:40:53.053Z,16.20
2018-10-03T12:41:56.461Z,16.20
2018-10-03T12:42:59.953Z,16.20
2018-10-03T12:44:03.316Z,16.20
2018-10-03T12:45:06.749Z,16.20
2018-10-03T12:46:10.111Z,16.20
2018-10-03T12:47:13.621Z,16.20
2018-10-03T12:48:17.001Z,16.30
2018-10-03T12:49:20.415Z,16.30
2018-10-03T12:50:23.793Z,16.40
2018-10-03T12:51:27.368Z,16.40
2018-10-03T12:52:30.851Z,16.50
2018-10-03T12:53:34.237Z,16.50
2018-10-03T12:54:37.650Z,16.50
2018-10-03T12:55:41.012Z,16.50
2018-10-03T12:56:44.391Z,16.60
2018-10-03T12:57:47.779Z,16.60
2018-10-03T12:58:51.348Z,16.60
2018-10-03T12:59:54.733Z,16.60
2018-10-03T13:00:58.103Z,16.70
2018-10-03T13:02:01.489Z,16.70
2018-10-03T13:03:04.872Z,16.60
2018-10-03T13:04:08.260Z,16.60
2018-10-03T13:05:11.631Z,16.60
2018-10-03T13:06:15.004Z,16.70
2018-10-03T13:07:18.416Z,16.60
2018-10-03T13:08:21.823Z,16.60
2018-10-03T13:09:25.251Z,16.60
2018-10-03T13:10:29.510Z,16.50
2018-10-03T13:11:32.879Z,16.50
2018-10-03T13:12:36.245Z,16.40
2018-10-03T13:13:39.635Z,16.40
2018-10-03T13:14:43.003Z,16.40
2018-10-03T13:15:46.843Z,16.40
2018-10-03T13:16:50.244Z,16.40
2018-10-03T13:17:53.646Z,16.30
2018-10-03T13:18:57.042Z,16.30
2018-10-03T13:20:00.431Z,16.20
2018-10-03T13:21:03.829Z,16.30
2018-10-03T13:22:07.424Z,16.30
2018-10-03T13:23:10.804Z,16.30
2018-10-03T13:24:14.223Z,16.30
2018-10-03T13:25:17.600Z,16.30
2018-10-03T13:26:20.978Z,16.30
2018-10-03T13:27:24.352Z,16.30
2018-10-03T13:28:27.720Z,16.40
2018-10-03T13:29:31.145Z,16.50
2018-10-03T13:30:34.552Z,16.50
2018-10-03T13:31:37.889Z,16.70
2018-10-03T13:32:41.269Z,16.70
2018-10-03T13:33:44.641Z,16.80
2018-10-03T13:34:48.053Z,16.80
2018-10-03T13:35:51.692Z,16.90
2018-10-03T13:36:55.071Z,16.90
2018-10-03T13:37:58.443Z,16.90